Terminal Aerodrome Forecast
Issued by NWS

Home | Current Version | Previous Version | Text Only | Print | Product List | Glossary Off
Versions: 1 2 3 4 5 6 7 8 9 10 11 12 13 14 15 16 17 18 19 20 21 22 23 24 25 26 27 28 29 30 31 32 33 34 35 36

000
FTUS45 KGGW 261100
TAFOLF
TAF
KOLF 261129Z 2612/2712 VRB06KT P6SM OVC035
     FM261400 10006KT P6SM -SHSN BKN013 OVC035
     FM270600 10007KT 3SM -SN OVC010=

USA.gov is the U.S. government's official web portal to all federal, state and local government web resources and services.